Time,TemperatureF,DewpointF,PressureIn,WindDirection,WindDirectionDegrees,WindSpeedMPH,WindSpeedGustMPH,Humidity,HourlyPrecipIn,Conditions,Clouds,dailyrainin,SoftwareType,DateUTC
2013-08-26 00:00:00,53.7,52.3,30.36,SE,135,0.0,0.0,95,0.00,,---,0.00,VWS V14.01,2013-08-26 04:00:00,
2013-08-26 00:30:00,54.5,53.1,30.34,SE,135,0.0,0.0,95,0.00,,---,0.00,VWS V14.01,2013-08-26 04:30:00,
2013-08-26 01:00:00,54.6,53.2,30.34,SE,135,0.0,0.0,95,0.00,,---,0.00,VWS V14.01,2013-08-26 05:00:00,
2013-08-26 01:30:00,53.7,52.3,30.33,SE,135,0.0,0.0,95,0.00,,---,0.00,VWS V14.01,2013-08-26 05:30:00,
2013-08-26 02:00:00,52.7,51.3,30.33,SE,135,0.0,0.0,95,0.00,,---,0.00,VWS V14.01,2013-08-26 06:00:00,
2013-08-26 02:30:00,52.1,50.7,30.31,SE,135,0.0,0.0,95,0.00,,---,0.00,VWS V14.01,2013-08-26 06:30:00,
2013-08-26 03:00:00,51.2,50.1,30.30,SE,135,0.0,0.0,96,0.00,,---,0.00,VWS V14.01,2013-08-26 07:00:00,
2013-08-26 03:30:00,50.7,49.6,30.30,SE,135,0.0,0.0,96,0.00,,---,0.00,VWS V14.01,2013-08-26 07:30:00,
2013-08-26 04:00:00,50.3,49.2,30.30,SE,135,0.0,0.0,96,0.00,,---,0.00,VWS V14.01,2013-08-26 08:00:00,
2013-08-26 04:30:00,50.1,49.0,30.31,SE,135,0.0,0.0,96,0.00,,---,0.00,VWS V14.01,2013-08-26 08:30:00,
2013-08-26 05:00:00,50.3,49.2,30.29,SE,135,0.0,0.0,96,0.00,,---,0.00,VWS V14.01,2013-08-26 09:00:00,
2013-08-26 05:30:00,50.3,49.2,30.30,SE,135,0.0,0.0,96,0.00,,---,0.00,VWS V14.01,2013-08-26 09:30:00,
2013-08-26 06:00:00,49.9,48.8,30.30,SE,135,0.0,0.0,96,0.00,,---,0.00,VWS V14.01,2013-08-26 10:00:00,
2013-08-26 06:30:00,49.8,48.7,30.31,SE,135,0.0,0.0,96,0.00,,---,0.00,VWS V14.01,2013-08-26 10:30:00,
2013-08-26 07:00:00,49.1,48.0,30.31,SE,135,0.0,0.0,96,0.00,,---,0.00,VWS V14.01,2013-08-26 11:00:00,
2013-08-26 07:30:00,49.1,48.0,30.33,SE,135,0.0,0.0,96,0.00,,---,0.00,VWS V14.01,2013-08-26 11:30:00,
2013-08-26 08:00:00,50.3,49.2,30.32,SE,135,0.0,0.0,96,0.00,,---,0.00,VWS V14.01,2013-08-26 12:00:00,
2013-08-26 08:30:00,52.9,52.1,30.32,South,180,0.0,2.0,97,0.00,,---,0.00,VWS V14.01,2013-08-26 12:30:00,
2013-08-26 09:00:00,55.3,54.5,30.32,North,0,0.0,3.0,97,0.01,,---,0.01,VWS V14.01,2013-08-26 13:00:00,
2013-08-26 09:30:00,57.7,55.4,30.31,North,0,0.0,5.0,92,0.01,,---,0.01,VWS V14.01,2013-08-26 13:30:00,
2013-08-26 10:00:00,61.3,56.1,30.30,WNW,292,0.0,3.0,83,0.01,,---,0.01,VWS V14.01,2013-08-26 14:00:00,
2013-08-26 10:30:00,63.8,57.5,30.31,NNE,22,0.0,1.0,80,0.00,,---,0.01,VWS V14.01,2013-08-26 14:30:00,
2013-08-26 11:00:00,65.2,57.1,30.30,West,270,0.0,4.0,75,0.00,,---,0.01,VWS V14.01,2013-08-26 15:00:00,
2013-08-26 11:30:00,66.5,57.6,30.30,ESE,112,1.0,7.0,73,0.00,,---,0.01,VWS V14.01,2013-08-26 15:30:00,
2013-08-26 12:00:00,65.2,57.1,30.30,West,270,0.0,4.0,75,0.00,,---,0.01,VWS V14.01,2013-08-26 16:00:00,
2013-08-26 12:22:00,67.4,57.3,30.28,East,92,4.0,9.0,70,0.00,,---,0.01,VWS V14.01,2013-08-26 16:22:00,
2013-08-26 12:28:00,66.6,56.9,30.28,ESE,111,0.0,9.0,71,0.00,,---,0.01,VWS V14.01,2013-08-26 16:28:00,
2013-08-26 12:30:00,66.5,57.6,30.30,ESE,112,1.0,7.0,73,0.00,,---,0.01,VWS V14.01,2013-08-26 16:30:00,
2013-08-26 12:34:00,67.0,57.7,30.28,NE,48,0.0,5.0,72,0.00,,---,0.01,VWS V14.01,2013-08-26 16:34:00,
2013-08-26 12:40:00,67.5,57.0,30.27,West,267,0.0,10.0,69,0.00,,---,0.01,VWS V14.01,2013-08-26 16:40:00,
2013-08-26 12:47:00,67.7,57.2,30.27,South,186,0.0,10.0,69,0.00,,---,0.01,VWS V14.01,2013-08-26 16:47:00,
2013-08-26 12:53:00,67.8,58.5,30.27,West,274,3.0,10.0,72,0.00,,---,0.01,VWS V14.01,2013-08-26 16:53:00,
2013-08-26 12:59:00,67.5,57.4,30.26,NW,319,2.0,10.0,70,0.00,,---,0.01,VWS V14.01,2013-08-26 16:59:00,
2013-08-26 13:05:00,68.4,56.6,30.27,ESE,121,0.0,6.0,66,0.00,,---,0.01,VWS V14.01,2013-08-26 17:05:00,
2013-08-26 13:11:00,69.0,58.0,30.27,SSE,166,0.0,6.0,68,0.00,,---,0.01,VWS V14.01,2013-08-26 17:11:00,
2013-08-26 13:17:00,69.5,58.1,30.27,West,261,0.0,6.0,67,0.00,,---,0.01,VWS V14.01,2013-08-26 17:17:00,
2013-08-26 13:23:00,69.7,57.8,30.26,NE,48,0.0,7.0,66,0.00,,---,0.01,VWS V14.01,2013-08-26 17:23:00,
2013-08-26 13:29:00,69.5,57.7,30.26,ENE,57,0.0,7.0,66,0.00,,---,0.01,VWS V14.01,2013-08-26 17:29:00,
2013-08-26 13:30:00,66.7,57.0,30.29,WNW,296,0.0,9.0,71,0.00,,---,0.01,VWS V14.01,2013-08-26 17:30:00,
2013-08-26 13:35:00,69.1,56.4,30.27,SW,229,0.0,2.0,64,0.00,,---,0.01,VWS V14.01,2013-08-26 17:35:00,
2013-08-26 13:41:00,68.7,58.1,30.27,SE,142,0.0,2.0,69,0.00,,---,0.01,VWS V14.01,2013-08-26 17:41:00,
2013-08-26 13:47:00,69.4,56.7,30.26,East,97,0.0,5.0,64,0.00,,---,0.01,VWS V14.01,2013-08-26 17:47:00,
2013-08-26 13:53:00,69.8,57.1,30.26,East,84,0.0,6.0,64,0.00,,---,0.01,VWS V14.01,2013-08-26 17:53:00,
2013-08-26 13:59:00,69.7,57.0,30.26,SE,142,0.0,6.0,64,0.00,,---,0.01,VWS V14.01,2013-08-26 17:59:00,
2013-08-26 14:00:00,68.1,58.7,30.26,South,169,0.0,10.0,72,0.00,,---,0.01,VWS V14.01,2013-08-26 18:00:00,
2013-08-26 14:05:00,69.8,57.5,30.26,ESE,106,0.0,8.0,65,0.00,,---,0.01,VWS V14.01,2013-08-26 18:05:00,
2013-08-26 14:11:00,69.6,58.6,30.26,SE,136,0.0,8.0,68,0.00,,---,0.01,VWS V14.01,2013-08-26 18:11:00,
2013-08-26 14:17:00,70.1,58.2,30.26,SSE,161,0.0,8.0,66,0.00,,---,0.01,VWS V14.01,2013-08-26 18:17:00,
2013-08-26 14:23:00,70.0,59.8,30.26,SSE,164,0.0,8.0,70,0.00,,---,0.01,VWS V14.01,2013-08-26 18:23:00,
2013-08-26 14:29:00,69.0,58.4,30.26,East,94,0.0,8.0,69,0.00,,---,0.01,VWS V14.01,2013-08-26 18:29:00,
2013-08-26 14:30:00,69.5,57.2,30.26,SW,229,2.0,7.0,65,0.00,,---,0.01,VWS V14.01,2013-08-26 18:30:00,
2013-08-26 14:35:00,68.3,57.3,30.26,NE,36,0.0,0.0,68,0.00,,---,0.01,VWS V14.01,2013-08-26 18:35:00,
2013-08-26 14:41:00,68.4,58.6,30.26,NE,36,0.0,0.0,71,0.00,,---,0.01,VWS V14.01,2013-08-26 18:41:00,
2013-08-26 14:47:00,68.9,59.1,30.24,NE,36,0.0,0.0,71,0.00,,---,0.01,VWS V14.01,2013-08-26 18:47:00,
2013-08-26 14:53:00,69.3,59.1,30.25,ENE,64,0.0,3.0,70,0.00,,---,0.01,VWS V14.01,2013-08-26 18:53:00,
2013-08-26 14:59:00,69.2,58.6,30.24,ESE,114,0.0,3.0,69,0.00,,---,0.01,VWS V14.01,2013-08-26 18:59:00,
2013-08-26 15:00:00,69.9,57.6,30.26,SE,138,0.0,6.0,65,0.00,,---,0.01,VWS V14.01,2013-08-26 19:00:00,
2013-08-26 15:05:00,69.0,58.0,30.25,ESE,114,0.0,0.0,68,0.00,,---,0.01,VWS V14.01,2013-08-26 19:05:00,
2013-08-26 15:11:00,68.9,59.1,30.24,ESE,114,0.0,0.0,71,0.00,,---,0.01,VWS V14.01,2013-08-26 19:11:00,
2013-08-26 15:17:00,69.0,59.2,30.24,ESE,114,0.0,0.0,71,0.00,,---,0.01,VWS V14.01,2013-08-26 19:17:00,
2013-08-26 15:23:00,70.4,62.1,30.23,ESE,114,0.0,1.0,75,0.00,,---,0.01,VWS V14.01,2013-08-26 19:23:00,
2013-08-26 15:29:00,71.7,58.9,30.22,ESE,114,2.0,3.0,64,0.00,,---,0.01,VWS V14.01,2013-08-26 19:29:00,
2013-08-26 15:30:00,68.6,59.6,30.25,NE,36,0.0,8.0,73,0.00,,---,0.01,VWS V14.01,2013-08-26 19:30:00,
2013-08-26 15:35:00,71.5,60.4,30.22,ESE,123,0.0,4.0,68,0.00,,---,0.01,VWS V14.01,2013-08-26 19:35:00,
2013-08-26 15:41:00,70.7,59.6,30.22,SSE,152,0.0,5.0,68,0.00,,---,0.01,VWS V14.01,2013-08-26 19:41:00,
2013-08-26 15:47:00,70.2,61.5,30.22,SSE,152,0.0,5.0,74,0.00,,---,0.01,VWS V14.01,2013-08-26 19:47:00,
2013-08-26 15:53:00,69.7,59.9,30.22,SSE,152,0.0,5.0,71,0.00,,---,0.01,VWS V14.01,2013-08-26 19:53:00,
2013-08-26 15:59:00,69.1,61.2,30.22,SSE,152,0.0,5.0,76,0.00,,---,0.01,VWS V14.01,2013-08-26 19:59:00,
2013-08-26 16:00:00,69.2,58.2,30.24,ESE,114,0.0,3.0,68,0.00,,---,0.01,VWS V14.01,2013-08-26 20:00:00,
2013-08-26 16:05:00,68.8,60.6,30.21,SSE,155,0.0,1.0,75,0.00,,---,0.01,VWS V14.01,2013-08-26 20:05:00,
2013-08-26 16:11:00,68.8,61.3,30.21,SSE,155,0.0,1.0,77,0.00,,---,0.01,VWS V14.01,2013-08-26 20:11:00,
2013-08-26 16:17:00,68.8,62.0,30.21,SSE,155,0.0,1.0,79,0.00,,---,0.01,VWS V14.01,2013-08-26 20:17:00,
2013-08-26 16:23:00,69.8,63.7,30.21,South,171,0.0,2.0,81,0.00,,---,0.01,VWS V14.01,2013-08-26 20:23:00,
2013-08-26 16:29:00,71.1,63.2,30.20,SSW,194,0.0,2.0,76,0.00,,---,0.01,VWS V14.01,2013-08-26 20:29:00,
2013-08-26 16:30:00,71.7,59.3,30.22,ESE,114,0.0,3.0,65,0.00,,---,0.01,VWS V14.01,2013-08-26 20:30:00,
2013-08-26 16:35:00,71.9,64.3,30.20,SSE,150,0.0,1.0,77,0.00,,---,0.01,VWS V14.01,2013-08-26 20:35:00,
2013-08-26 16:41:00,71.7,62.2,30.19,SSE,163,0.0,4.0,72,0.00,,---,0.01,VWS V14.01,2013-08-26 20:41:00,
2013-08-26 16:47:00,70.5,61.4,30.19,SSE,163,0.0,5.0,73,0.00,,---,0.01,VWS V14.01,2013-08-26 20:47:00,
2013-08-26 16:53:00,69.5,60.9,30.19,SSE,163,0.0,5.0,74,0.00,,---,0.01,VWS V14.01,2013-08-26 20:53:00,
2013-08-26 16:59:00,68.8,61.3,30.20,SSE,149,0.0,5.0,77,0.00,,---,0.01,VWS V14.01,2013-08-26 20:59:00,
2013-08-26 17:00:00,68.9,60.7,30.22,SSE,152,0.0,5.0,75,0.00,,---,0.01,VWS V14.01,2013-08-26 21:00:00,
2013-08-26 17:05:00,68.5,61.4,30.20,SSE,149,0.0,0.0,78,0.00,,---,0.01,VWS V14.01,2013-08-26 21:05:00,
2013-08-26 17:11:00,68.3,61.9,30.20,SSE,149,0.0,0.0,80,0.00,,---,0.01,VWS V14.01,2013-08-26 21:11:00,
2013-08-26 17:17:00,68.2,62.2,30.20,SSE,149,0.0,0.0,81,0.00,,---,0.01,VWS V14.01,2013-08-26 21:17:00,
2013-08-26 17:23:00,68.1,61.3,30.20,SSE,149,0.0,0.0,79,0.00,,---,0.01,VWS V14.01,2013-08-26 21:23:00,
2013-08-26 17:29:00,68.0,61.6,30.20,SSE,149,0.0,0.0,80,0.00,,---,0.01,VWS V14.01,2013-08-26 21:29:00,
2013-08-26 17:30:00,71.6,63.6,30.20,SE,126,0.0,5.0,76,0.00,,---,0.01,VWS V14.01,2013-08-26 21:30:00,
2013-08-26 17:35:00,68.2,62.5,30.20,SSE,149,0.0,0.0,82,0.00,,---,0.01,VWS V14.01,2013-08-26 21:35:00,
2013-08-26 17:41:00,68.6,62.5,30.20,SSE,149,0.0,0.0,81,0.00,,---,0.01,VWS V14.01,2013-08-26 21:41:00,
2013-08-26 17:47:00,68.8,62.4,30.20,SSE,149,0.0,0.0,80,0.00,,---,0.01,VWS V14.01,2013-08-26 21:47:00,
2013-08-26 17:53:00,68.6,61.8,30.20,SSE,149,0.0,0.0,79,0.00,,---,0.01,VWS V14.01,2013-08-26 21:53:00,
2013-08-26 17:59:00,68.1,62.1,30.20,SSE,149,0.0,0.0,81,0.00,,---,0.01,VWS V14.01,2013-08-26 21:59:00,
2013-08-26 18:00:00,68.6,61.5,30.20,SSE,149,0.0,5.0,78,0.00,,---,0.01,VWS V14.01,2013-08-26 22:00:00,
2013-08-26 18:05:00,67.7,61.7,30.20,SSE,149,0.0,0.0,81,0.00,,---,0.01,VWS V14.01,2013-08-26 22:05:00,
2013-08-26 18:11:00,67.6,61.9,30.20,SSE,149,0.0,0.0,82,0.00,,---,0.01,VWS V14.01,2013-08-26 22:11:00,
2013-08-26 18:17:00,67.7,62.4,30.20,SSE,149,0.0,0.0,83,0.00,,---,0.01,VWS V14.01,2013-08-26 22:17:00,
2013-08-26 18:23:00,67.7,62.4,30.20,SSE,149,0.0,0.0,83,0.00,,---,0.01,VWS V14.01,2013-08-26 22:23:00,
2013-08-26 18:29:00,67.9,62.9,30.20,SSE,149,0.0,0.0,84,0.00,,---,0.01,VWS V14.01,2013-08-26 22:29:00,
2013-08-26 18:30:00,68.0,62.0,30.20,SSE,149,0.0,0.0,81,0.00,,---,0.01,VWS V14.01,2013-08-26 22:30:00,
2013-08-26 18:35:00,67.8,62.5,30.20,SSE,149,0.0,0.0,83,0.00,,---,0.01,VWS V14.01,2013-08-26 22:35:00,
2013-08-26 18:41:00,67.6,62.6,30.20,SSE,149,0.0,0.0,84,0.00,,---,0.01,VWS V14.01,2013-08-26 22:41:00,
2013-08-26 18:47:00,67.5,62.5,30.20,SSE,149,0.0,0.0,84,0.00,,---,0.01,VWS V14.01,2013-08-26 22:47:00,
2013-08-26 18:53:00,67.3,62.3,30.20,SSE,149,0.0,0.0,84,0.00,,---,0.01,VWS V14.01,2013-08-26 22:53:00,
2013-08-26 18:59:00,67.2,62.5,30.20,SSE,149,0.0,0.0,85,0.00,,---,0.01,VWS V14.01,2013-08-26 22:59:00,
2013-08-26 19:00:00,67.9,61.9,30.20,SSE,149,0.0,0.0,81,0.00,,---,0.01,VWS V14.01,2013-08-26 23:00:00,
2013-08-26 19:05:00,67.0,62.7,30.19,SSE,149,0.0,0.0,86,0.00,,---,0.01,VWS V14.01,2013-08-26 23:05:00,
2013-08-26 19:11:00,66.8,62.2,30.19,SSE,149,0.0,0.0,85,0.00,,---,0.01,VWS V14.01,2013-08-26 23:11:00,
2013-08-26 19:18:00,66.3,62.0,30.19,SSE,149,0.0,0.0,86,0.00,,---,0.01,VWS V14.01,2013-08-26 23:18:00,
2013-08-26 19:24:00,65.9,61.6,30.19,SSE,149,0.0,0.0,86,0.00,,---,0.01,VWS V14.01,2013-08-26 23:24:00,
2013-08-26 19:30:00,65.2,61.6,30.19,SSE,149,0.0,0.0,88,0.00,,---,0.01,VWS V14.01,2013-08-26 23:30:00,
2013-08-26 19:36:00,64.8,61.2,30.18,SSE,149,0.0,0.0,88,0.00,,---,0.01,VWS V14.01,2013-08-26 23:36:00,
2013-08-26 19:42:00,64.1,60.8,30.19,SSE,149,0.0,0.0,89,0.00,,---,0.01,VWS V14.01,2013-08-26 23:42:00,
2013-08-26 19:48:00,63.7,60.4,30.20,SSE,149,0.0,0.0,89,0.00,,---,0.01,VWS V14.01,2013-08-26 23:48:00,
2013-08-26 19:54:00,63.1,60.1,30.20,SSE,149,0.0,0.0,90,0.00,,---,0.01,VWS V14.01,2013-08-26 23:54:00,
2013-08-26 20:00:00,62.6,59.9,30.20,SSE,149,0.0,0.0,91,0.00,,---,0.01,VWS V14.01,2013-08-27 00:00:00,
2013-08-26 20:06:00,62.1,59.5,30.18,SSE,149,0.0,0.0,91,0.00,,---,0.01,VWS V14.01,2013-08-27 00:06:00,
2013-08-26 20:12:00,61.7,59.4,30.19,SSE,149,0.0,0.0,92,0.00,,---,0.01,VWS V14.01,2013-08-27 00:12:00,
2013-08-26 20:18:00,61.3,59.0,30.20,SSE,149,0.0,0.0,92,0.00,,---,0.01,VWS V14.01,2013-08-27 00:18:00,
2013-08-26 20:24:00,60.9,58.6,30.19,SSE,149,0.0,0.0,92,0.00,,---,0.01,VWS V14.01,2013-08-27 00:24:00,
2013-08-26 20:30:00,60.5,58.2,30.19,SSE,149,0.0,0.0,92,0.00,,---,0.01,VWS V14.01,2013-08-27 00:30:00,
2013-08-26 20:36:00,60.1,58.1,30.19,SSE,149,0.0,0.0,93,0.00,,---,0.01,VWS V14.01,2013-08-27 00:36:00,
2013-08-26 20:42:00,59.8,57.8,30.19,SSE,149,0.0,0.0,93,0.00,,---,0.01,VWS V14.01,2013-08-27 00:42:00,
2013-08-26 20:48:00,59.4,57.4,30.20,SSE,149,0.0,0.0,93,0.00,,---,0.01,VWS V14.01,2013-08-27 00:48:00,
2013-08-26 20:54:00,59.1,57.1,30.20,SSE,149,0.0,0.0,93,0.00,,---,0.01,VWS V14.01,2013-08-27 00:54:00,
2013-08-26 21:00:00,59.0,57.3,30.20,SSE,149,0.0,0.0,94,0.00,,---,0.01,VWS V14.01,2013-08-27 01:00:00,
2013-08-26 21:06:00,59.0,57.3,30.17,SSE,149,0.0,0.0,94,0.00,,---,0.01,VWS V14.01,2013-08-27 01:06:00,
2013-08-26 21:12:00,58.8,57.1,30.17,SSE,149,0.0,0.0,94,0.00,,---,0.01,VWS V14.01,2013-08-27 01:12:00,
2013-08-26 21:18:00,58.5,56.8,30.17,SSE,149,0.0,0.0,94,0.00,,---,0.01,VWS V14.01,2013-08-27 01:18:00,
2013-08-26 21:24:00,58.2,56.5,30.17,SSE,149,0.0,0.0,94,0.00,,---,0.01,VWS V14.01,2013-08-27 01:24:00,
2013-08-26 21:30:00,57.9,56.2,30.18,SSE,149,0.0,0.0,94,0.00,,---,0.01,VWS V14.01,2013-08-27 01:30:00,
2013-08-26 21:36:00,57.7,56.0,30.18,SSE,149,0.0,0.0,94,0.00,,---,0.01,VWS V14.01,2013-08-27 01:36:00,
2013-08-26 21:42:00,57.4,55.7,30.18,SSE,149,0.0,0.0,94,0.00,,---,0.01,VWS V14.01,2013-08-27 01:42:00,
2013-08-26 21:48:00,57.2,55.5,30.18,SSE,149,0.0,0.0,94,0.00,,---,0.01,VWS V14.01,2013-08-27 01:48:00,
2013-08-26 21:54:00,56.9,55.5,30.18,SSE,149,0.0,0.0,95,0.00,,---,0.01,VWS V14.01,2013-08-27 01:54:00,
2013-08-26 22:00:00,56.7,55.0,30.19,SSE,149,0.0,0.0,94,0.00,,---,0.01,VWS V14.01,2013-08-27 02:00:00,
2013-08-26 22:06:00,56.4,55.0,30.18,SSE,149,0.0,0.0,95,0.00,,---,0.01,VWS V14.01,2013-08-27 02:06:00,
2013-08-26 22:12:00,56.2,54.8,30.17,SSE,149,0.0,0.0,95,0.00,,---,0.01,VWS V14.01,2013-08-27 02:12:00,
2013-08-26 22:18:00,56.0,54.6,30.18,SSE,149,0.0,0.0,95,0.00,,---,0.01,VWS V14.01,2013-08-27 02:18:00,
2013-08-26 22:24:00,55.9,54.5,30.17,SSE,149,0.0,0.0,95,0.00,,---,0.01,VWS V14.01,2013-08-27 02:24:00,
2013-08-26 22:30:00,55.7,54.3,30.18,SSE,149,0.0,0.0,95,0.00,,---,0.01,VWS V14.01,2013-08-27 02:30:00,
2013-08-26 22:36:00,55.7,54.3,30.18,SSE,149,0.0,0.0,95,0.00,,---,0.01,VWS V14.01,2013-08-27 02:36:00,
2013-08-26 22:42:00,55.6,54.2,30.18,SSE,149,0.0,0.0,95,0.00,,---,0.01,VWS V14.01,2013-08-27 02:42:00,
2013-08-26 22:48:00,55.5,54.1,30.18,SSE,149,0.0,0.0,95,0.00,,---,0.01,VWS V14.01,2013-08-27 02:48:00,
2013-08-26 22:54:00,55.4,54.0,30.19,SSE,149,0.0,0.0,95,0.00,,---,0.01,VWS V14.01,2013-08-27 02:54:00,
2013-08-26 23:00:00,55.3,53.9,30.19,SSE,149,0.0,0.0,95,0.00,,---,0.01,VWS V14.01,2013-08-27 03:00:00,
2013-08-26 23:06:00,55.1,53.7,30.18,SSE,149,0.0,0.0,95,0.00,,---,0.01,VWS V14.01,2013-08-27 03:06:00,
2013-08-26 23:12:00,55.1,53.7,30.18,SSE,149,0.0,0.0,95,0.00,,---,0.01,VWS V14.01,2013-08-27 03:12:00,
2013-08-26 23:18:00,55.0,53.6,30.18,SSE,149,0.0,0.0,95,0.00,,---,0.01,VWS V14.01,2013-08-27 03:18:00,
2013-08-26 23:24:00,54.8,53.4,30.18,SSE,149,0.0,0.0,95,0.00,,---,0.01,VWS V14.01,2013-08-27 03:24:00,
2013-08-26 23:30:00,54.7,53.3,30.18,SSE,149,0.0,0.0,95,0.00,,---,0.01,VWS V14.01,2013-08-27 03:30:00,
2013-08-26 23:36:00,54.6,53.2,30.18,SSE,149,0.0,0.0,95,0.00,,---,0.01,VWS V14.01,2013-08-27 03:36:00,
2013-08-26 23:42:00,54.5,53.1,30.19,SSE,149,0.0,0.0,95,0.00,,---,0.01,VWS V14.01,2013-08-27 03:42:00,
2013-08-26 23:48:00,54.5,53.1,30.19,SSE,149,0.0,0.0,95,0.00,,---,0.01,VWS V14.01,2013-08-27 03:48:00,
2013-08-26 23:54:00,54.5,53.1,30.19,SSE,149,0.0,3.0,95,0.00,,---,0.01,VWS V14.01,2013-08-27 03:54:00,